createdAt,value
2019-05-10T00:02:08.623Z,12.87
2019-05-10T00:07:30.617Z,12.86
2019-05-10T00:12:45.843Z,12.91
2019-05-10T00:17:51.258Z,12.91
2019-05-10T00:22:55.507Z,12.85
2019-05-10T00:27:59.745Z,12.86
2019-05-10T00:33:04.080Z,12.96
2019-05-10T00:38:08.318Z,12.95
2019-05-10T00:43:12.586Z,12.93
2019-05-10T00:48:16.775Z,12.92
2019-05-10T00:53:21.000Z,12.99
2019-05-10T00:58:28.089Z,13.07
2019-05-10T01:03:32.335Z,12.95
2019-05-10T01:08:36.545Z,12.90
2019-05-10T01:13:40.770Z,12.97
2019-05-10T01:18:44.987Z,12.93
2019-05-10T01:23:49.721Z,12.92
2019-05-10T01:28:53.940Z,12.95
2019-05-10T01:33:58.178Z,12.99
2019-05-10T01:39:02.407Z,13.01
2019-05-10T01:44:06.631Z,12.98
2019-05-10T01:49:10.849Z,13.09
2019-05-10T01:54:15.078Z,13.14
2019-05-10T01:59:19.386Z,13.05
2019-05-10T02:04:23.627Z,13.09
2019-05-10T02:09:27.873Z,13.16
2019-05-10T02:14:32.107Z,13.14
2019-05-10T02:19:36.318Z,13.19
2019-05-10T02:24:40.539Z,13.13
2019-05-10T02:29:44.970Z,13.08
2019-05-10T02:34:49.349Z,13.15
2019-05-10T02:39:53.562Z,13.20
2019-05-10T02:44:57.773Z,13.21
2019-05-10T02:50:02.153Z,13.14
2019-05-10T02:55:07.658Z,13.18
2019-05-10T03:00:12.610Z,13.14
2019-05-10T03:05:17.208Z,13.05
2019-05-10T03:10:21.440Z,13.05
2019-05-10T03:15:28.623Z,13.01
2019-05-10T03:20:36.085Z,13.00
2019-05-10T03:25:40.295Z,13.01
2019-05-10T03:30:44.598Z,12.86
2019-05-10T03:35:48.949Z,12.67
2019-05-10T03:40:53.567Z,12.71
2019-05-10T03:45:57.750Z,12.79
2019-05-10T03:51:02.146Z,12.60
2019-05-10T03:56:06.416Z,12.63
2019-05-10T04:01:10.642Z,12.69
2019-05-10T04:06:14.869Z,12.69
2019-05-10T04:11:19.094Z,12.47
2019-05-10T04:16:23.309Z,12.48
2019-05-10T04:21:27.532Z,12.54
2019-05-10T04:26:31.768Z,12.57
2019-05-10T04:31:36.350Z,12.45
2019-05-10T04:36:40.585Z,12.38
2019-05-10T04:41:44.828Z,12.38
2019-05-10T04:46:49.055Z,12.41
2019-05-10T04:51:53.276Z,12.39
2019-05-10T04:57:00.060Z,12.48
2019-05-10T05:02:03.454Z,12.55
2019-05-10T05:07:07.749Z,12.75
2019-05-10T05:12:11.973Z,12.89
2019-05-10T05:17:16.208Z,12.91
2019-05-10T05:22:20.437Z,12.93
2019-05-10T05:27:25.765Z,13.02
2019-05-10T05:32:30.005Z,13.09
2019-05-10T05:37:34.257Z,13.12
2019-05-10T05:42:38.491Z,13.28
2019-05-10T05:47:44.849Z,13.20
2019-05-10T05:52:48.763Z,13.32
2019-05-10T05:57:52.978Z,13.13
2019-05-10T06:02:57.193Z,13.16
2019-05-10T06:08:01.760Z,13.21
2019-05-10T06:13:06.132Z,13.31
2019-05-10T06:18:12.156Z,13.45
2019-05-10T06:23:16.583Z,13.81
2019-05-10T06:28:27.044Z,13.74
2019-05-10T06:33:26.954Z,13.89
2019-05-10T06:38:31.203Z,13.63
2019-05-10T06:43:35.430Z,13.73
2019-05-10T06:48:39.686Z,13.78
2019-05-10T06:53:52.176Z,13.82
2019-05-10T06:58:49.897Z,14.05
2019-05-10T07:03:54.119Z,13.75
2019-05-10T07:08:59.529Z,14.18
2019-05-10T07:14:03.939Z,14.23
2019-05-10T07:19:08.373Z,14.51
2019-05-10T07:24:12.595Z,14.59
2019-05-10T07:29:29.562Z,14.64
2019-05-10T07:34:22.789Z,15.00
2019-05-10T07:39:27.013Z,14.87
2019-05-10T07:44:31.265Z,14.97
2019-05-10T07:49:35.514Z,15.52
2019-05-10T07:54:45.128Z,14.87
2019-05-10T07:59:50.924Z,14.59
2019-05-10T08:04:53.768Z,15.11
2019-05-10T08:09:59.432Z,14.95
2019-05-10T08:15:03.781Z,15.10
2019-05-10T08:20:08.923Z,15.06
2019-05-10T08:25:15.301Z,15.20
2019-05-10T08:30:35.286Z,15.37
2019-05-10T08:35:43.412Z,15.72
2019-05-10T08:40:45.942Z,15.87
2019-05-10T08:45:52.432Z,15.49
2019-05-10T08:50:57.604Z,15.47
2019-05-10T08:56:07.420Z,15.89
2019-05-10T09:01:20.568Z,15.69
2019-05-10T09:06:16.950Z,15.88
2019-05-10T09:11:22.959Z,16.18
2019-05-10T09:16:29.082Z,16.10
2019-05-10T09:21:32.921Z,15.86
2019-05-10T09:26:37.350Z,15.76
2019-05-10T09:31:45.886Z,15.95
2019-05-10T09:36:47.578Z,15.90
2019-05-10T09:41:52.761Z,16.15
2019-05-10T09:46:57.281Z,16.66
2019-05-10T09:52:04.583Z,16.51
2019-05-10T09:57:08.253Z,16.21
2019-05-10T10:02:18.713Z,16.22
2019-05-10T10:07:18.987Z,16.28
2019-05-10T10:12:23.486Z,15.90
2019-05-10T10:17:30.667Z,15.60
2019-05-10T10:22:33.879Z,15.27
2019-05-10T10:27:39.525Z,15.35
2019-05-10T10:32:44.592Z,15.55
2019-05-10T10:37:49.086Z,15.79
2019-05-10T10:42:53.669Z,15.53
2019-05-10T10:48:02.386Z,15.87
2019-05-10T10:53:04.097Z,16.10
2019-05-10T10:58:08.339Z,16.60
2019-05-10T11:03:12.601Z,16.72
2019-05-10T11:08:16.845Z,16.37
2019-05-10T11:13:40.632Z,16.47
2019-05-10T11:18:27.129Z,16.55
2019-05-10T11:23:38.984Z,17.97
2019-05-10T11:28:39.987Z,17.86
2019-05-10T11:33:47.433Z,18.15
2019-05-10T11:38:56.891Z,17.19
2019-05-10T11:43:58.124Z,17.19
2019-05-10T11:49:01.851Z,17.19
2019-05-10T11:54:06.368Z,16.92
2019-05-10T11:59:15.898Z,17.01
2019-05-10T12:04:28.757Z,17.14
2019-05-10T12:09:24.475Z,17.40
2019-05-10T12:14:29.135Z,19.18
2019-05-10T12:19:44.571Z,19.57
2019-05-10T12:24:57.312Z,18.44
2019-05-10T12:29:46.516Z,20.65
2019-05-10T12:34:56.357Z,18.65
2019-05-10T12:40:06.252Z,17.61
2019-05-10T12:45:03.758Z,15.85
2019-05-10T12:50:08.530Z,15.20
2019-05-10T12:55:13.070Z,15.19
2019-05-10T13:00:18.043Z,15.29
2019-05-10T13:05:31.126Z,15.37
2019-05-10T13:10:28.352Z,15.51
2019-05-10T13:15:33.487Z,14.96
2019-05-10T13:20:38.736Z,14.95
2019-05-10T13:25:43.110Z,14.99
2019-05-10T13:30:47.345Z,15.03
2019-05-10T13:35:56.550Z,15.09
2019-05-10T13:40:57.533Z,14.86
2019-05-10T13:46:01.770Z,15.02
2019-05-10T13:51:06.018Z,15.27
2019-05-10T13:56:10.269Z,15.81
2019-05-10T14:01:14.834Z,15.64
2019-05-10T14:06:19.352Z,15.47
2019-05-10T14:11:23.601Z,16.14
2019-05-10T14:16:27.839Z,16.31
2019-05-10T14:21:32.081Z,16.45
2019-05-10T14:26:37.357Z,16.95
2019-05-10T14:31:41.627Z,17.01
2019-05-10T14:36:46.582Z,16.44
2019-05-10T14:41:52.424Z,17.28
2019-05-10T14:46:56.882Z,18.12
2019-05-10T14:52:01.123Z,18.50
2019-05-10T14:57:05.424Z,17.72
2019-05-10T15:02:09.672Z,17.96
2019-05-10T15:07:16.425Z,17.43
2019-05-10T15:12:22.754Z,17.14
2019-05-10T15:17:29.738Z,17.32
2019-05-10T15:22:32.034Z,17.13
2019-05-10T15:27:36.307Z,16.79
2019-05-10T15:32:40.802Z,16.94
2019-05-10T15:37:46.157Z,16.73
2019-05-10T15:42:51.113Z,16.25
2019-05-10T15:47:57.473Z,15.73
2019-05-10T15:53:01.351Z,15.40
2019-05-10T15:58:05.771Z,15.14
2019-05-10T16:03:10.122Z,15.64
2019-05-10T16:08:14.362Z,17.67
2019-05-10T16:13:23.642Z,17.12
2019-05-10T16:18:24.600Z,16.81
2019-05-10T16:23:28.864Z,16.09
2019-05-10T16:28:33.097Z,15.58
2019-05-10T16:33:37.576Z,15.64
2019-05-10T16:38:42.011Z,15.60
2019-05-10T16:43:46.449Z,15.71
2019-05-10T16:48:50.813Z,15.48
2019-05-10T16:53:55.042Z,15.60
2019-05-10T16:58:59.686Z,15.43
2019-05-10T17:04:04.049Z,15.39
2019-05-10T17:09:17.867Z,15.10
2019-05-10T17:14:17.926Z,14.74
2019-05-10T17:19:21.243Z,14.55
2019-05-10T17:24:25.612Z,14.56
2019-05-10T17:29:29.859Z,14.56
2019-05-10T17:34:34.235Z,14.43
2019-05-10T17:39:38.661Z,14.18
2019-05-10T17:44:43.816Z,14.30
2019-05-10T17:49:48.232Z,14.05
2019-05-10T17:54:52.472Z,14.17
2019-05-10T17:59:56.712Z,14.19
2019-05-10T18:05:06.082Z,14.10
2019-05-10T18:10:07.265Z,13.99
2019-05-10T18:15:11.705Z,13.96
2019-05-10T18:20:15.967Z,13.86
2019-05-10T18:25:22.298Z,13.71
2019-05-10T18:30:26.228Z,13.67
2019-05-10T18:35:31.304Z,13.37
2019-05-10T18:40:35.728Z,13.32
2019-05-10T18:45:40.071Z,13.18
2019-05-10T18:50:45.427Z,13.19
2019-05-10T18:55:50.313Z,13.07
2019-05-10T19:01:00.589Z,13.10
2019-05-10T19:06:04.093Z,12.93
2019-05-10T19:11:08.276Z,12.92
2019-05-10T19:16:12.796Z,12.86
2019-05-10T19:21:17.993Z,12.62
2019-05-10T19:26:28.912Z,12.67
2019-05-10T19:31:31.488Z,12.66
2019-05-10T19:36:35.541Z,12.59
2019-05-10T19:41:39.825Z,12.62
2019-05-10T19:46:44.135Z,12.62
2019-05-10T19:51:50.271Z,12.82
2019-05-10T19:56:55.454Z,12.89
2019-05-10T20:01:59.941Z,12.89
2019-05-10T20:07:04.300Z,12.85
2019-05-10T20:12:08.741Z,12.69
2019-05-10T20:17:13.441Z,12.42
2019-05-10T20:22:17.890Z,12.32
2019-05-10T20:27:22.140Z,12.31
2019-05-10T20:32:26.392Z,12.27
2019-05-10T20:37:30.643Z,12.16
2019-05-10T20:42:34.892Z,12.38
2019-05-10T20:47:39.251Z,12.35
2019-05-10T20:52:43.527Z,12.52
2019-05-10T20:57:47.876Z,12.07
2019-05-10T21:02:52.124Z,12.34
2019-05-10T21:07:56.364Z,11.90
2019-05-10T21:13:00.645Z,12.08
2019-05-10T21:18:06.174Z,12.04
2019-05-10T21:23:10.423Z,11.93
2019-05-10T21:28:14.685Z,11.91
2019-05-10T21:33:18.922Z,11.93
2019-05-10T21:38:32.565Z,12.01
2019-05-10T21:43:29.222Z,12.00
2019-05-10T21:48:33.510Z,11.93
2019-05-10T21:53:37.757Z,11.65
2019-05-10T21:58:42.041Z,11.64
2019-05-10T22:03:46.320Z,11.59
2019-05-10T22:08:50.753Z,11.45
2019-05-10T22:13:55.056Z,11.46
2019-05-10T22:19:01.361Z,11.42
2019-05-10T22:24:06.025Z,11.45
2019-05-10T22:29:10.265Z,11.24
2019-05-10T22:34:14.647Z,11.32
2019-05-10T22:39:19.008Z,11.22
2019-05-10T22:44:23.304Z,11.06
2019-05-10T22:49:27.598Z,11.06
2019-05-10T22:54:32.841Z,10.94
2019-05-10T22:59:37.114Z,11.05
2019-05-10T23:04:41.385Z,11.04
2019-05-10T23:09:45.822Z,11.00
2019-05-10T23:14:50.074Z,11.12
2019-05-10T23:19:54.480Z,11.14
2019-05-10T23:24:58.911Z,11.07
2019-05-10T23:30:03.250Z,11.13
2019-05-10T23:35:08.376Z,11.02
2019-05-10T23:40:12.827Z,11.17
2019-05-10T23:45:17.098Z,11.30
2019-05-10T23:50:21.422Z,11.25
2019-05-10T23:55:25.746Z,11.39
